Terminal Aerodrome Forecast
Issued by NWS

Home | Current Version | Previous Version | Text Only | Print | Product List | Glossary On
Versions: 1 2 3 4 5 6 7 8 9 10 11 12 13
000
FTUS43 KILX 021721
TAFDEC
TAF
KDEC 021721Z 0218/0318 22009KT P6SM SCT040
     FM030000 21005KT P6SM SCT100 BKN250
      TEMPO 0308/0312 4SM BR=

USA.gov is the U.S. government's official web portal to all federal, state and local government web resources and services.